Time;durP1;ratioP1;P1;durP2;ratioP2;P2;SDS_P1;SDS_P2;PMS_P1;PMS_P2;Temp;Humidity;BMP_temperature;BMP_pressure;BME280_temperature;BME280_humidity;BME280_pressure;Samples;Min_cycle;Max_cycle;Signal;HPM_P1;HPM_P2
2024/02/02 00:00:44;;;;;;;4.70;4.18;;;3.60;99.90;;;;;;5049808;28;20747;-78
2024/02/02 00:03:11;;;;;;;4.63;4.32;;;3.60;99.90;;;;;;5060514;28;20198;-77
2024/02/02 00:05:40;;;;;;;5.38;4.80;;;3.60;99.90;;;;;;5052950;28;20257;-77
2024/02/02 00:08:07;;;;;;;4.72;4.43;;;3.60;99.90;;;;;;5050786;28;20219;-78
2024/02/02 00:10:35;;;;;;;4.43;4.13;;;3.50;99.90;;;;;;5050980;28;20313;-78
2024/02/02 00:13:02;;;;;;;4.45;4.15;;;3.50;99.90;;;;;;5049947;28;20211;-78
2024/02/02 00:15:29;;;;;;;4.60;4.20;;;3.50;99.90;;;;;;5052039;28;20218;-78
2024/02/02 00:17:56;;;;;;;6.10;4.40;;;3.50;99.90;;;;;;5049726;28;20210;-78
2024/02/02 00:20:23;;;;;;;4.60;4.30;;;3.60;99.90;;;;;;5050867;28;20210;-77
2024/02/02 00:22:51;;;;;;;4.50;4.20;;;3.60;99.90;;;;;;5052326;28;20214;-77
2024/02/02 00:25:18;;;;;;;4.80;4.50;;;3.60;99.90;;;;;;5050285;28;20234;-78
2024/02/02 00:27:45;;;;;;;4.22;3.92;;;3.50;99.90;;;;;;5049785;28;20210;-77
2024/02/02 00:30:13;;;;;;;3.95;3.65;;;3.50;99.90;;;;;;5050650;28;20739;-78
2024/02/02 00:32:44;;;;;;;4.32;4.03;;;3.50;99.90;;;;;;5050550;28;20233;-78
2024/02/02 00:35:12;;;;;;;4.18;3.88;;;3.50;99.90;;;;;;5048117;28;20580;-77
2024/02/02 00:37:39;;;;;;;4.15;3.58;;;3.60;99.90;;;;;;5047447;28;20195;-78
2024/02/02 00:40:10;;;;;;;3.90;3.60;;;3.60;99.90;;;;;;5050271;28;20229;-78
2024/02/02 00:42:37;;;;;;;3.67;3.47;;;3.70;99.90;;;;;;5048439;28;20317;-78
2024/02/02 00:45:05;;;;;;;4.40;4.10;;;3.70;99.90;;;;;;5049024;28;23693;-78
2024/02/02 00:47:33;;;;;;;4.80;4.43;;;3.80;99.90;;;;;;5049830;28;20863;-78
2024/02/02 00:50:00;;;;;;;4.57;4.28;;;3.70;99.90;;;;;;5048883;28;20233;-78
2024/02/02 00:52:27;;;;;;;5.10;4.57;;;3.70;99.90;;;;;;5051274;28;20945;-78
2024/02/02 00:54:54;;;;;;;5.00;4.60;;;3.70;99.90;;;;;;5048882;28;20218;-79
2024/02/02 00:57:22;;;;;;;4.60;4.30;;;3.60;99.90;;;;;;5049755;28;20325;-77
2024/02/02 00:59:50;;;;;;;4.25;3.95;;;3.50;99.90;;;;;;5048736;28;20309;-79
2024/02/02 01:02:18;;;;;;;4.55;4.20;;;3.50;99.90;;;;;;5052729;28;20194;-78
2024/02/02 01:04:45;;;;;;;4.18;3.88;;;3.40;99.90;;;;;;5048354;28;20232;-79
2024/02/02 01:07:15;;;;;;;4.28;3.97;;;3.40;99.90;;;;;;5049116;28;20207;-78
2024/02/02 01:09:42;;;;;;;4.40;4.10;;;3.30;99.90;;;;;;5048740;28;20318;-77
2024/02/02 01:12:10;;;;;;;4.10;3.80;;;3.30;99.90;;;;;;5050213;28;20295;-78
2024/02/02 01:14:38;;;;;;;4.47;4.10;;;3.30;99.90;;;;;;5048919;28;20207;-79
2024/02/02 01:17:06;;;;;;;4.45;4.07;;;3.30;99.90;;;;;;5048950;28;20218;-79
2024/02/02 01:19:34;;;;;;;5.00;4.60;;;3.30;99.90;;;;;;5047463;28;20403;-79
2024/02/02 01:22:01;;;;;;;5.18;4.88;;;3.30;99.90;;;;;;5049919;28;20252;-78
2024/02/02 01:24:28;;;;;;;4.78;4.40;;;3.30;99.90;;;;;;5051300;28;20712;-79
2024/02/02 01:26:55;;;;;;;4.53;4.22;;;3.30;99.90;;;;;;5048586;28;20265;-78
2024/02/02 01:29:22;;;;;;;4.53;4.20;;;3.30;99.90;;;;;;5047756;28;20222;-79
2024/02/02 01:31:50;;;;;;;5.07;4.60;;;3.30;99.90;;;;;;5047011;28;21111;-78
2024/02/02 01:34:18;;;;;;;4.68;4.38;;;3.30;99.90;;;;;;5048603;28;20207;-78
2024/02/02 01:36:45;;;;;;;4.68;4.38;;;3.40;99.90;;;;;;5046360;28;20218;-80
2024/02/02 01:39:13;;;;;;;4.90;4.47;;;3.40;99.90;;;;;;5047686;28;20230;-77
2024/02/02 01:41:40;;;;;;;4.65;4.35;;;3.40;99.90;;;;;;5047354;28;20360;-79
2024/02/02 01:44:08;;;;;;;6.30;5.70;;;3.30;99.90;;;;;;5043831;28;20203;-79
2024/02/02 01:46:35;;;;;;;4.78;4.38;;;3.30;99.90;;;;;;5042591;28;20234;-78
2024/02/02 01:49:03;;;;;;;4.72;4.32;;;3.30;99.90;;;;;;5046470;28;20218;-78
2024/02/02 01:51:30;;;;;;;4.03;3.72;;;3.30;99.90;;;;;;5048480;28;20214;-78
2024/02/02 01:54:03;;;;;;;4.07;3.78;;;3.30;99.90;;;;;;5050835;28;20210;-79
2024/02/02 01:56:30;;;;;;;4.13;3.83;;;3.30;99.90;;;;;;5053326;28;20563;-78
2024/02/02 01:58:58;;;;;;;4.10;3.90;;;3.30;99.90;;;;;;5062000;28;20237;-78
2024/02/02 02:01:25;;;;;;;4.22;3.92;;;3.30;99.90;;;;;;5032079;28;20241;-78
2024/02/02 02:03:52;;;;;;;3.63;3.42;;;3.30;99.90;;;;;;5027100;28;20204;-79
2024/02/02 02:06:20;;;;;;;4.10;3.80;;;3.30;99.90;;;;;;5026144;28;20226;-78
2024/02/02 02:08:48;;;;;;;3.55;3.35;;;3.40;99.90;;;;;;5027549;28;20661;-77
2024/02/02 02:11:15;;;;;;;3.45;3.30;;;3.40;99.90;;;;;;5027280;28;20228;-78
2024/02/02 02:13:42;;;;;;;4.53;4.10;;;3.40;99.90;;;;;;5027823;28;20576;-79
2024/02/02 02:16:11;;;;;;;4.32;4.03;;;3.40;99.90;;;;;;5025923;28;20279;-79
2024/02/02 02:18:38;;;;;;;4.20;3.90;;;3.40;99.90;;;;;;5025069;28;20230;-78
2024/02/02 02:21:22;;;;;;;4.93;4.43;;;3.40;99.90;;;;;;5023425;28;21045;-79
2024/02/02 02:23:50;;;;;;;4.53;4.13;;;3.30;99.90;;;;;;5027150;28;20234;-79
2024/02/02 02:26:17;;;;;;;4.03;3.72;;;3.20;99.90;;;;;;5025852;28;20234;-78
2024/02/02 02:28:44;;;;;;;4.10;3.85;;;3.20;99.90;;;;;;5029431;28;20818;-78
2024/02/02 02:31:12;;;;;;;4.18;3.88;;;3.20;99.90;;;;;;5025054;28;20215;-79
2024/02/02 02:33:39;;;;;;;4.18;3.88;;;3.20;99.90;;;;;;5029156;28;20310;-79
2024/02/02 02:36:08;;;;;;;4.95;4.55;;;3.20;99.90;;;;;;5026720;28;20226;-77
2024/02/02 02:38:36;;;;;;;4.45;4.15;;;3.20;99.90;;;;;;5024494;28;20850;-78
2024/02/02 02:41:03;;;;;;;3.92;3.63;;;3.20;99.90;;;;;;5024440;28;21877;-79
2024/02/02 02:43:30;;;;;;;4.47;4.18;;;3.20;99.90;;;;;;5028166;28;20222;-79
2024/02/02 02:45:58;;;;;;;4.85;4.45;;;3.20;99.90;;;;;;5026836;28;20258;-79
2024/02/02 02:48:26;;;;;;;4.57;4.28;;;3.20;99.90;;;;;;5023904;28;20235;-77
2024/02/02 02:50:53;;;;;;;4.30;4.00;;;3.20;99.90;;;;;;5025494;28;20242;-77
2024/02/02 02:53:21;;;;;;;4.22;3.92;;;3.20;99.90;;;;;;5026565;28;20215;-79
2024/02/02 02:55:48;;;;;;;3.72;3.53;;;3.20;99.90;;;;;;5028341;28;20310;-79
2024/02/02 02:58:15;;;;;;;3.60;3.33;;;3.20;99.90;;;;;;5029008;28;20835;-78
2024/02/02 03:00:42;;;;;;;3.97;3.67;;;3.20;99.90;;;;;;5030022;28;20227;-78
2024/02/02 03:03:09;;;;;;;3.22;3.03;;;3.20;99.90;;;;;;5029843;28;20218;-78
2024/02/02 03:05:37;;;;;;;3.97;3.78;;;3.20;99.90;;;;;;5030534;28;20233;-77
2024/02/02 03:08:05;;;;;;;4.00;3.80;;;3.20;99.90;;;;;;5026937;28;20225;-79
2024/02/02 03:10:34;;;;;;;4.03;3.78;;;3.20;99.90;;;;;;5030853;28;20335;-78
2024/02/02 03:13:01;;;;;;;4.35;4.05;;;3.20;99.90;;;;;;5028013;28;20203;-78
2024/02/02 03:15:31;;;;;;;4.18;3.88;;;3.20;99.90;;;;;;5034220;28;20231;-78
2024/02/02 03:17:58;;;;;;;3.83;3.53;;;3.20;99.90;;;;;;5028682;28;20233;-77
2024/02/02 03:20:27;;;;;;;3.55;3.35;;;3.20;99.90;;;;;;5031722;28;20249;-79
2024/02/02 03:22:54;;;;;;;3.50;3.30;;;3.20;99.90;;;;;;5032730;28;20211;-78
2024/02/02 03:25:21;;;;;;;3.63;3.42;;;3.20;99.90;;;;;;5035003;28;20309;-78
2024/02/02 03:27:50;;;;;;;3.70;3.50;;;3.30;99.90;;;;;;5031654;28;20191;-78
2024/02/02 03:30:17;;;;;;;3.40;3.20;;;3.30;99.90;;;;;;5026974;28;20230;-78
2024/02/02 03:32:45;;;;;;;3.40;3.20;;;3.30;99.90;;;;;;5035127;28;20207;-78
2024/02/02 03:35:12;;;;;;;3.47;3.20;;;3.30;99.90;;;;;;5032324;28;20243;-79
2024/02/02 03:37:39;;;;;;;3.22;3.10;;;3.40;99.90;;;;;;5031696;28;20895;-77
2024/02/02 03:40:07;;;;;;;3.45;3.25;;;3.40;99.90;;;;;;5031818;28;20230;-79
2024/02/02 03:42:35;;;;;;;2.72;2.63;;;3.40;99.90;;;;;;5033063;28;20299;-78
2024/02/02 03:45:04;;;;;;;3.60;3.40;;;3.40;99.90;;;;;;5032751;28;20273;-78
2024/02/02 03:47:31;;;;;;;3.50;3.30;;;3.40;99.90;;;;;;5033058;28;20237;-78
2024/02/02 03:49:58;;;;;;;3.40;3.20;;;3.50;99.90;;;;;;5034069;28;20229;-79
2024/02/02 03:52:26;;;;;;;3.10;3.00;;;3.50;99.90;;;;;;5049041;28;20191;-78
2024/02/02 03:54:53;;;;;;;3.28;3.17;;;3.50;99.90;;;;;;5033662;28;20219;-79
2024/02/02 03:57:20;;;;;;;3.40;3.20;;;3.50;99.90;;;;;;5050710;28;20191;-78
2024/02/02 03:59:47;;;;;;;3.05;2.95;;;3.50;99.90;;;;;;5049191;28;20230;-78
2024/02/02 04:02:16;;;;;;;3.22;3.13;;;3.40;99.90;;;;;;5032257;28;20210;-78
2024/02/02 04:04:44;;;;;;;3.40;3.20;;;3.40;99.90;;;;;;5032350;28;20211;-78
2024/02/02 04:07:11;;;;;;;3.08;2.97;;;3.40;99.90;;;;;;5031834;28;20219;-76
2024/02/02 04:09:38;;;;;;;3.08;2.97;;;3.40;99.90;;;;;;5032142;28;20227;-77
2024/02/02 04:12:06;;;;;;;3.22;3.10;;;3.40;99.90;;;;;;5032951;28;20228;-79
2024/02/02 04:14:33;;;;;;;3.17;2.97;;;3.40;99.90;;;;;;5032673;28;20195;-78
2024/02/02 04:17:00;;;;;;;3.67;3.47;;;3.30;99.90;;;;;;5039365;28;20230;-79
2024/02/02 04:19:28;;;;;;;3.83;3.60;;;3.20;99.90;;;;;;5038460;28;20234;-78
2024/02/02 04:21:55;;;;;;;3.70;3.50;;;3.20;99.90;;;;;;5041614;28;20223;-79
2024/02/02 04:24:22;;;;;;;3.67;3.40;;;3.10;99.90;;;;;;5039905;28;20220;-79
2024/02/02 04:26:49;;;;;;;3.40;3.20;;;3.10;99.90;;;;;;5041510;28;20620;-77
2024/02/02 04:29:16;;;;;;;4.40;4.10;;;3.20;99.90;;;;;;5038189;28;20230;-78
2024/02/02 04:31:43;;;;;;;3.55;3.35;;;3.20;99.90;;;;;;5041178;28;20222;-79
2024/02/02 04:34:10;;;;;;;3.53;3.33;;;3.20;99.90;;;;;;5040788;28;20222;-78
2024/02/02 04:36:40;;;;;;;3.50;3.30;;;3.20;99.90;;;;;;5042974;28;20236;-78
2024/02/02 04:39:08;;;;;;;3.40;3.20;;;3.20;99.90;;;;;;5043023;28;20222;-76
2024/02/02 04:41:35;;;;;;;3.22;3.03;;;3.20;99.90;;;;;;5043510;28;20292;-78
2024/02/02 04:44:02;;;;;;;3.15;3.05;;;3.20;99.90;;;;;;5042600;28;20298;-79
2024/02/02 04:46:29;;;;;;;3.22;3.03;;;3.20;99.90;;;;;;5039211;28;20868;-79
2024/02/02 04:48:56;;;;;;;3.35;3.15;;;3.30;99.90;;;;;;5039869;28;20231;-78
2024/02/02 04:51:23;;;;;;;3.40;3.20;;;3.30;99.90;;;;;;5040315;28;20226;-78
2024/02/02 04:53:52;;;;;;;3.30;3.10;;;3.40;99.90;;;;;;5044586;28;20710;-78
2024/02/02 04:56:19;;;;;;;4.00;3.70;;;3.40;99.90;;;;;;5041131;28;20226;-78
2024/02/02 04:58:46;;;;;;;3.33;3.13;;;3.40;99.90;;;;;;5043783;28;20218;-77
2024/02/02 05:01:13;;;;;;;3.50;3.30;;;3.30;99.90;;;;;;5037589;28;20231;-79
2024/02/02 05:03:40;;;;;;;3.60;3.40;;;3.30;99.90;;;;;;5045296;28;20202;-78
2024/02/02 05:06:07;;;;;;;3.28;3.03;;;3.30;99.90;;;;;;5040881;28;20252;-77
2024/02/02 05:08:34;;;;;;;3.40;3.20;;;3.30;99.90;;;;;;5042751;28;20246;-79
2024/02/02 05:11:03;;;;;;;3.67;3.47;;;3.30;99.90;;;;;;5041800;28;20227;-80
2024/02/02 05:13:30;;;;;;;3.45;3.22;;;3.30;99.90;;;;;;5051427;28;20651;-79
2024/02/02 05:15:57;;;;;;;3.35;3.17;;;3.30;99.90;;;;;;5049340;28;20221;-78
2024/02/02 05:18:24;;;;;;;4.20;4.00;;;3.30;99.90;;;;;;5047293;28;21503;-79
2024/02/02 05:20:51;;;;;;;3.42;3.22;;;3.30;99.90;;;;;;5049606;28;20867;-79
2024/02/02 05:23:18;;;;;;;3.08;2.92;;;3.30;99.90;;;;;;5048419;28;20213;-78
2024/02/02 05:25:45;;;;;;;3.40;3.20;;;3.20;99.90;;;;;;5049706;28;20307;-79
2024/02/02 05:28:14;;;;;;;3.20;3.10;;;3.20;99.90;;;;;;5048527;28;20907;-79
2024/02/02 05:30:41;;;;;;;3.00;2.80;;;3.20;99.90;;;;;;5047753;28;20214;-77
2024/02/02 05:33:08;;;;;;;3.25;3.10;;;3.20;99.90;;;;;;5048733;28;20207;-78
2024/02/02 05:35:35;;;;;;;3.45;3.25;;;3.20;99.90;;;;;;5049781;28;20229;-79
2024/02/02 05:38:02;;;;;;;2.97;2.88;;;3.30;99.90;;;;;;5048434;28;20223;-77
2024/02/02 05:40:29;;;;;;;3.47;3.17;;;3.30;99.90;;;;;;5050461;28;20276;-78
2024/02/02 05:42:56;;;;;;;3.80;3.42;;;3.40;99.90;;;;;;5049727;28;20206;-78
2024/02/02 05:45:24;;;;;;;3.88;3.60;;;3.30;99.90;;;;;;5052713;28;20223;-79
2024/02/02 05:47:51;;;;;;;3.55;3.35;;;3.20;99.90;;;;;;5056576;28;20233;-78
2024/02/02 05:50:18;;;;;;;3.53;3.33;;;3.00;99.90;;;;;;5055802;28;20225;-77
2024/02/02 05:52:45;;;;;;;3.38;3.17;;;3.00;99.90;;;;;;5051562;28;20222;-78
2024/02/02 05:55:13;;;;;;;3.70;3.40;;;3.00;99.90;;;;;;5053509;28;20257;-78
2024/02/02 05:57:40;;;;;;;3.47;3.28;;;3.00;99.90;;;;;;5055479;28;20863;-78
2024/02/02 06:00:10;;;;;;;3.33;3.13;;;3.00;99.90;;;;;;5051960;28;20700;-75
2024/02/02 06:02:39;;;;;;;3.65;3.45;;;3.00;99.90;;;;;;5048003;28;20253;-78
2024/02/02 06:05:06;;;;;;;3.10;2.90;;;2.90;99.90;;;;;;5049030;28;20229;-79
2024/02/02 06:07:34;;;;;;;3.40;3.20;;;2.90;99.90;;;;;;5050368;28;20226;-77
2024/02/02 06:10:01;;;;;;;3.40;3.20;;;2.90;99.90;;;;;;5049885;28;20235;-78
2024/02/02 06:12:28;;;;;;;3.60;3.40;;;2.90;99.90;;;;;;5049123;28;20207;-78
2024/02/02 06:14:55;;;;;;;3.35;3.15;;;2.90;99.90;;;;;;5052547;28;20636;-77
2024/02/02 06:17:22;;;;;;;3.22;3.00;;;3.00;99.90;;;;;;5048144;28;20203;-76
2024/02/02 06:19:50;;;;;;;3.97;3.70;;;2.90;99.90;;;;;;5047000;28;20222;-77
2024/02/02 06:22:21;;;;;;;3.78;3.58;;;2.90;99.90;;;;;;5046700;28;20206;-79
2024/02/02 06:24:48;;;;;;;4.15;3.85;;;2.80;99.90;;;;;;5048712;28;20202;-78
2024/02/02 06:27:15;;;;;;;3.88;3.67;;;2.70;99.90;;;;;;5048305;28;20222;-76
2024/02/02 06:29:42;;;;;;;3.80;3.60;;;2.70;99.90;;;;;;5051631;28;20221;-79
2024/02/02 06:32:09;;;;;;;3.78;3.58;;;2.70;99.90;;;;;;5052117;28;20220;-78
2024/02/02 06:34:37;;;;;;;3.80;3.60;;;2.70;99.90;;;;;;5052310;28;20203;-77
2024/02/02 06:37:05;;;;;;;3.70;3.50;;;2.70;99.90;;;;;;5052719;28;20210;-78
2024/02/02 06:39:32;;;;;;;3.63;3.42;;;2.70;99.90;;;;;;5050989;28;20994;-79
2024/02/02 06:41:59;;;;;;;3.42;3.22;;;2.70;99.90;;;;;;5053035;28;20217;-78
2024/02/02 06:44:26;;;;;;;3.40;3.20;;;2.80;99.90;;;;;;5055295;28;20236;-77
2024/02/02 06:46:53;;;;;;;3.30;3.10;;;2.90;99.90;;;;;;5056841;28;20222;-78
2024/02/02 06:49:20;;;;;;;3.55;3.25;;;3.00;99.90;;;;;;5052640;28;20286;-78
2024/02/02 06:51:47;;;;;;;3.40;3.20;;;3.00;99.90;;;;;;5055866;28;20223;-77
2024/02/02 06:54:16;;;;;;;3.30;3.10;;;3.00;99.90;;;;;;5054804;28;20218;-76
2024/02/02 06:56:44;;;;;;;3.40;3.20;;;3.10;99.90;;;;;;5055884;28;20222;-78
2024/02/02 06:59:12;;;;;;;3.60;3.40;;;3.10;99.90;;;;;;5052759;28;20231;-77
2024/02/02 07:01:39;;;;;;;3.58;3.38;;;3.10;99.90;;;;;;5044738;28;20222;-79
2024/02/02 07:04:10;;;;;;;3.30;3.10;;;3.10;99.90;;;;;;5050372;28;20213;-79
2024/02/02 07:06:37;;;;;;;3.70;3.50;;;3.10;99.90;;;;;;5045688;28;20549;-78
2024/02/02 07:09:22;;;;;;;3.55;3.35;;;3.10;99.90;;;;;;5050930;28;20507;-78
2024/02/02 07:11:59;;;;;;;3.20;3.10;;;3.00;99.90;;;;;;5051424;28;20215;-78
2024/02/02 07:14:59;;;;;;;3.80;3.53;;;3.10;99.90;;;;;;5046325;28;20206;-78
2024/02/02 07:17:37;;;;;;;3.40;3.20;;;3.10;99.90;;;;;;5043737;28;20241;-78
2024/02/02 07:20:09;;;;;;;3.20;3.00;;;3.10;99.90;;;;;;5044882;28;20219;-78
2024/02/02 07:22:39;;;;;;;3.35;3.15;;;3.20;99.90;;;;;;5047651;28;20206;-77
2024/02/02 07:25:12;;;;;;;3.25;3.05;;;3.30;99.90;;;;;;5050301;28;20230;-77
2024/02/02 07:27:49;;;;;;;3.47;3.35;;;3.40;99.90;;;;;;5046638;28;20217;-77
2024/02/02 07:30:47;;;;;;;3.22;3.03;;;3.40;99.90;;;;;;5047335;28;20228;-76
2024/02/02 07:33:26;;;;;;;3.33;3.22;;;3.40;99.90;;;;;;5045481;28;20221;-78
2024/02/02 07:35:55;;;;;;;3.08;2.90;;;3.40;99.90;;;;;;5048327;28;20623;-77
2024/02/02 07:38:48;;;;;;;2.97;2.83;;;3.50;99.90;;;;;;5049880;28;20223;-79
2024/02/02 07:41:17;;;;;;;3.00;2.90;;;3.50;99.90;;;;;;5059289;28;20235;-79
2024/02/02 07:43:47;;;;;;;3.03;2.92;;;3.60;99.90;;;;;;5058681;28;20214;-78
2024/02/02 07:46:14;;;;;;;3.13;3.00;;;3.60;99.90;;;;;;5046824;28;22388;-78
2024/02/02 07:48:42;;;;;;;3.28;3.08;;;3.70;99.90;;;;;;5045982;28;20233;-77
2024/02/02 07:51:09;;;;;;;3.72;3.42;;;3.90;99.90;;;;;;5047524;28;20231;-79
2024/02/02 07:53:36;;;;;;;3.65;3.40;;;4.60;99.90;;;;;;5045462;28;20209;-79
2024/02/02 07:56:04;;;;;;;3.63;3.35;;;5.60;99.90;;;;;;5046326;28;20261;-78
2024/02/02 07:58:31;;;;;;;3.70;3.40;;;6.60;99.90;;;;;;5046698;28;20225;-79
2024/02/02 08:01:00;;;;;;;4.28;3.95;;;7.60;99.90;;;;;;5046045;28;20436;-77
2024/02/02 08:03:27;;;;;;;4.00;3.70;;;8.30;99.90;;;;;;5046446;28;21064;-79
2024/02/02 08:05:54;;;;;;;4.30;4.00;;;8.90;99.90;;;;;;5047302;28;20265;-77
2024/02/02 08:08:21;;;;;;;4.28;3.97;;;9.50;99.90;;;;;;5046661;28;20231;-77
2024/02/02 08:10:48;;;;;;;5.68;5.20;;;10.00;99.90;;;;;;5048841;28;20775;-78
2024/02/02 08:13:16;;;;;;;6.95;6.35;;;10.40;99.90;;;;;;5050916;28;20206;-78
2024/02/02 08:15:43;;;;;;;5.45;4.95;;;10.60;99.90;;;;;;5049149;28;20313;-79
2024/02/02 08:18:12;;;;;;;6.88;4.90;;;10.80;99.90;;;;;;5046957;28;20659;-78
2024/02/02 08:20:39;;;;;;;6.97;4.93;;;11.00;99.90;;;;;;5048984;28;20727;-79
2024/02/02 08:23:06;;;;;;;5.40;4.90;;;11.20;99.90;;;;;;5051046;28;20636;-78
2024/02/02 08:25:34;;;;;;;5.47;4.95;;;11.50;99.90;;;;;;5049683;28;20290;-78
2024/02/02 08:28:01;;;;;;;4.50;4.10;;;11.90;99.90;;;;;;5051247;28;20253;-78
2024/02/02 08:30:28;;;;;;;4.68;4.28;;;12.10;99.90;;;;;;5049509;28;20233;-80
2024/02/02 08:32:55;;;;;;;5.10;4.60;;;12.30;99.90;;;;;;5050439;28;20213;-78
2024/02/02 08:35:25;;;;;;;5.82;5.25;;;12.50;99.90;;;;;;5053142;28;20229;-79
2024/02/02 08:37:55;;;;;;;4.25;3.85;;;12.90;99.90;;;;;;5054642;28;20202;-79
2024/02/02 08:40:38;;;;;;;4.45;4.05;;;13.30;99.90;;;;;;5060770;28;20221;-78
2024/02/02 08:43:06;;;;;;;5.38;4.88;;;13.40;99.90;;;;;;5060817;28;20206;-80
2024/02/02 08:46:10;;;;;;;6.70;5.07;;;13.60;99.90;;;;;;5058234;28;20253;-79
2024/02/02 08:48:44;;;;;;;6.35;4.82;;;13.70;99.90;;;;;;5056295;28;20222;-78
2024/02/02 08:51:47;;;;;;;6.15;4.15;;;14.20;99.90;;;;;;5051692;28;20222;-80
2024/02/02 08:54:45;;;;;;;4.63;4.22;;;14.60;99.90;;;;;;5059379;28;21525;-79
2024/02/02 08:57:43;;;;;;;4.80;4.38;;;14.20;99.90;;;;;;5061073;28;20234;-78
2024/02/02 09:00:15;;;;;;;6.18;4.55;;;14.00;99.90;;;;;;5057054;28;20226;-80
2024/02/02 09:02:55;;;;;;;7.15;4.60;;;13.70;99.90;;;;;;5059300;28;20203;-79
2024/02/02 09:05:24;;;;;;;4.75;4.35;;;13.20;99.90;;;;;;5057644;28;20268;-80
2024/02/02 09:08:07;;;;;;;6.43;4.85;;;12.70;99.90;;;;;;5055181;28;20223;-78
2024/02/02 09:11:11;;;;;;;6.18;5.03;;;12.00;99.90;;;;;;5050780;28;20217;-78
2024/02/02 09:13:40;;;;;;;6.22;5.18;;;12.20;99.90;;;;;;5052662;28;20202;-79
2024/02/02 09:16:09;;;;;;;5.00;4.35;;;12.20;99.90;;;;;;5051183;28;20293;-79
2024/02/02 09:18:39;;;;;;;5.25;4.75;;;11.80;99.90;;;;;;5050383;28;20218;-78
2024/02/02 09:21:07;;;;;;;5.53;5.03;;;12.10;99.90;;;;;;5050174;28;20225;-78
2024/02/02 09:23:39;;;;;;;5.90;5.30;;;12.90;99.90;;;;;;5051918;28;20640;-78
2024/02/02 09:26:11;;;;;;;6.72;5.28;;;12.80;99.90;;;;;;5052140;28;20331;-78
2024/02/02 09:28:41;;;;;;;7.28;5.50;;;12.80;99.90;;;;;;5051691;28;20223;-79
2024/02/02 09:31:16;;;;;;;6.60;5.70;;;13.00;99.90;;;;;;5054014;28;20210;-79
2024/02/02 09:33:50;;;;;;;6.43;5.30;;;13.40;99.90;;;;;;5053241;28;20217;-78
2024/02/02 09:36:18;;;;;;;6.47;5.55;;;14.10;99.90;;;;;;5055828;28;20246;-78
2024/02/02 09:38:57;;;;;;;6.25;5.65;;;15.30;99.90;;;;;;5061687;28;20209;-80
2024/02/02 09:41:56;;;;;;;6.07;5.47;;;16.90;99.90;;;;;;5055273;28;20214;-79
2024/02/02 09:44:44;;;;;;;7.57;5.00;;;18.50;99.90;;;;;;5053704;28;20205;-77
2024/02/02 09:47:35;;;;;;;7.07;5.35;;;19.40;99.90;;;;;;5050805;28;20230;-80
2024/02/02 09:50:13;;;;;;;7.22;5.43;;;19.50;98.00;;;;;;5048172;28;20250;-79
2024/02/02 09:52:57;;;;;;;6.22;5.20;;;18.80;97.20;;;;;;5049342;28;20198;-79
2024/02/02 09:55:32;;;;;;;12.68;5.28;;;17.70;98.80;;;;;;5053230;28;20233;-79
2024/02/02 09:58:05;;;;;;;6.03;4.88;;;16.70;99.90;;;;;;5053563;28;20190;-79
2024/02/02 10:00:41;;;;;;;7.32;5.18;;;16.00;99.90;;;;;;5049898;28;20235;-78
2024/02/02 10:03:18;;;;;;;6.03;5.10;;;15.90;99.90;;;;;;5052483;28;20205;-79
2024/02/02 10:05:54;;;;;;;7.05;5.10;;;15.80;99.90;;;;;;5052007;28;20292;-80
2024/02/02 10:08:42;;;;;;;8.90;6.00;;;15.60;99.90;;;;;;5050492;28;21483;-79
2024/02/02 10:11:30;;;;;;;7.63;5.07;;;15.30;99.90;;;;;;5051214;28;20229;-79
2024/02/02 10:14:22;;;;;;;7.03;5.50;;;15.10;99.90;;;;;;5052601;28;20707;-79
2024/02/02 10:16:56;;;;;;;7.32;4.65;;;15.10;99.90;;;;;;5048727;28;20272;-80
2024/02/02 10:19:50;;;;;;;5.28;4.85;;;15.00;99.90;;;;;;5050023;28;20238;-79
2024/02/02 10:22:35;;;;;;;5.82;5.20;;;15.10;99.90;;;;;;5047831;28;20221;-79
2024/02/02 10:25:21;;;;;;;6.68;4.32;;;15.60;99.90;;;;;;5046077;28;20205;-78
2024/02/02 10:28:11;;;;;;;4.78;4.07;;;16.00;99.90;;;;;;5044081;28;20233;-80
2024/02/02 10:30:52;;;;;;;5.13;4.13;;;16.00;99.90;;;;;;5048668;28;20700;-80
2024/02/02 10:33:32;;;;;;;8.25;4.78;;;16.00;99.90;;;;;;5045148;28;20237;-79
2024/02/02 10:36:11;;;;;;;6.38;5.50;;;16.10;99.90;;;;;;5049244;28;20285;-79
2024/02/02 10:38:54;;;;;;;8.85;5.60;;;16.10;99.90;;;;;;5057396;28;20776;-79
2024/02/02 10:41:33;;;;;;;5.68;5.03;;;16.20;99.90;;;;;;5054110;28;20229;-80
2024/02/02 10:44:10;;;;;;;5.57;4.97;;;16.10;99.90;;;;;;5048252;28;20217;-80
2024/02/02 10:46:43;;;;;;;5.75;5.20;;;16.10;99.90;;;;;;5046182;28;20229;-81
2024/02/02 10:49:23;;;;;;;6.35;4.65;;;15.80;99.90;;;;;;5045924;28;20667;-80
2024/02/02 10:52:00;;;;;;;5.25;4.75;;;15.30;99.90;;;;;;5047899;28;20222;-81
2024/02/02 10:54:41;;;;;;;6.10;5.00;;;14.80;99.90;;;;;;5046722;28;20467;-78
2024/02/02 10:57:21;;;;;;;8.40;5.70;;;14.30;99.90;;;;;;5043377;28;20305;-78
2024/02/02 11:00:07;;;;;;;6.00;5.40;;;13.80;99.90;;;;;;5041304;28;20328;-80
2024/02/02 11:02:43;;;;;;;7.00;5.68;;;13.40;99.90;;;;;;5045062;28;20202;-78
2024/02/02 11:05:26;;;;;;;7.00;6.30;;;12.90;99.90;;;;;;5044051;28;20226;-78
2024/02/02 11:07:56;;;;;;;6.75;6.07;;;12.50;99.90;;;;;;5039854;28;20218;-77
2024/02/02 11:10:30;;;;;;;6.75;6.15;;;12.40;99.90;;;;;;5044461;28;20524;-78
2024/02/02 11:13:06;;;;;;;9.55;6.97;;;12.20;99.90;;;;;;5048099;28;20214;-79
2024/02/02 11:15:48;;;;;;;7.40;6.60;;;12.40;99.90;;;;;;5050444;28;20241;-78
2024/02/02 11:18:39;;;;;;;8.02;7.22;;;13.10;99.90;;;;;;5046531;28;20228;-79
2024/02/02 11:21:20;;;;;;;7.75;6.65;;;13.90;99.90;;;;;;5046121;28;20227;-79
2024/02/02 11:23:55;;;;;;;7.47;6.55;;;14.40;99.90;;;;;;5054258;28;20191;-80
2024/02/02 11:26:26;;;;;;;7.10;6.40;;;14.80;99.90;;;;;;5051888;28;20815;-77
2024/02/02 11:29:08;;;;;;;7.05;6.40;;;15.20;99.90;;;;;;5049868;28;20587;-79
2024/02/02 11:31:45;;;;;;;6.38;5.78;;;15.50;99.90;;;;;;5045403;28;20226;-78
2024/02/02 11:34:25;;;;;;;8.18;6.13;;;15.70;99.90;;;;;;5042675;28;20202;-78
2024/02/02 11:37:06;;;;;;;8.63;6.25;;;15.60;99.90;;;;;;5042118;28;20240;-78
2024/02/02 11:39:50;;;;;;;8.82;6.35;;;15.40;99.90;;;;;;5044430;28;20289;-76
2024/02/02 11:42:21;;;;;;;7.97;5.82;;;15.40;99.90;;;;;;5043737;28;20272;-78
2024/02/02 11:44:49;;;;;;;8.13;6.22;;;15.50;99.90;;;;;;5046073;28;20249;-78
2024/02/02 11:47:19;;;;;;;6.65;6.05;;;15.70;99.90;;;;;;5072877;28;20260;-78
2024/02/02 11:49:53;;;;;;;6.85;6.05;;;15.80;99.90;;;;;;5057189;28;20226;-78
2024/02/02 11:52:23;;;;;;;6.60;5.88;;;15.80;99.90;;;;;;5045486;28;20611;-78
2024/02/02 11:54:58;;;;;;;9.85;5.47;;;15.90;99.90;;;;;;5042054;28;20301;-78
2024/02/02 11:57:29;;;;;;;7.65;5.80;;;16.10;99.90;;;;;;5046050;28;20237;-79
2024/02/02 11:59:59;;;;;;;7.22;5.05;;;16.20;99.90;;;;;;5045576;28;20214;-78
2024/02/02 12:02:42;;;;;;;6.50;5.63;;;16.20;99.90;;;;;;5045015;28;20198;-78
2024/02/02 12:05:18;;;;;;;6.20;5.50;;;16.40;99.90;;;;;;5047707;28;20229;-79
2024/02/02 12:07:53;;;;;;;5.50;5.00;;;16.40;99.90;;;;;;5048842;28;20244;-79
2024/02/02 12:10:24;;;;;;;8.30;5.53;;;15.90;99.90;;;;;;5047176;28;20654;-79
2024/02/02 12:12:56;;;;;;;5.53;4.78;;;15.70;99.90;;;;;;5049389;28;20237;-78
2024/02/02 12:15:23;;;;;;;4.90;4.50;;;15.50;99.90;;;;;;5047177;28;20325;-78
2024/02/02 12:17:52;;;;;;;4.80;4.40;;;15.40;99.90;;;;;;5046105;28;20210;-78
2024/02/02 12:20:21;;;;;;;6.70;5.18;;;15.50;99.90;;;;;;5049046;28;20239;-78
2024/02/02 12:22:50;;;;;;;5.53;5.03;;;15.60;99.90;;;;;;5044651;28;20213;-78
2024/02/02 12:25:18;;;;;;;5.75;5.22;;;15.60;99.90;;;;;;5046267;28;20226;-77
2024/02/02 12:27:46;;;;;;;6.45;5.47;;;15.60;99.90;;;;;;5048361;28;20209;-77
2024/02/02 12:30:16;;;;;;;7.85;5.28;;;15.60;99.90;;;;;;5048597;28;20829;-78
2024/02/02 12:32:56;;;;;;;7.15;5.32;;;15.60;99.90;;;;;;5052337;28;20248;-78
2024/02/02 12:35:23;;;;;;;6.00;5.22;;;15.70;99.90;;;;;;5051876;28;20226;-79
2024/02/02 12:37:52;;;;;;;6.47;5.07;;;15.70;99.90;;;;;;5047568;28;20210;-77
2024/02/02 12:40:20;;;;;;;5.88;4.43;;;16.00;99.90;;;;;;5051951;28;20891;-79
2024/02/02 12:42:48;;;;;;;5.20;3.70;;;16.40;99.90;;;;;;5051156;28;20249;-79
2024/02/02 12:45:15;;;;;;;4.72;4.03;;;16.30;99.90;;;;;;5048644;28;20242;-79
2024/02/02 12:47:44;;;;;;;5.10;4.60;;;15.90;99.90;;;;;;5050313;28;20218;-78
2024/02/02 12:50:17;;;;;;;5.47;4.40;;;15.80;99.90;;;;;;5046714;28;20299;-78
2024/02/02 12:52:44;;;;;;;4.95;4.45;;;15.80;99.90;;;;;;5033790;28;20222;-79
2024/02/02 12:55:12;;;;;;;4.85;4.35;;;15.90;99.90;;;;;;5031610;28;20231;-80
2024/02/02 12:57:40;;;;;;;7.60;4.75;;;16.20;99.90;;;;;;5034282;28;20262;-79
2024/02/02 13:00:13;;;;;;;6.40;4.28;;;16.30;99.90;;;;;;5029270;28;20255;-80
2024/02/02 13:02:41;;;;;;;4.07;3.67;;;16.50;99.90;;;;;;5035285;28;20203;-81
2024/02/02 13:05:12;;;;;;;5.25;4.03;;;16.60;99.90;;;;;;5033277;28;20342;-79
2024/02/02 13:07:39;;;;;;;7.65;3.97;;;16.60;99.90;;;;;;5047388;28;20318;-78
2024/02/02 13:10:07;;;;;;;4.20;3.45;;;16.40;98.30;;;;;;5046994;28;20243;-76
2024/02/02 13:12:39;;;;;;;3.70;3.40;;;16.20;99.60;;;;;;5048686;28;20203;-78